Time;durP1;ratioP1;P1;durP2;ratioP2;P2;SDS_P1;SDS_P2;PMS_P1;PMS_P2;Temp;Humidity;BMP_temperature;BMP_pressure;BME280_temperature;BME280_humidity;BME280_pressure;Samples;Min_cycle;Max_cycle;Signal;HPM_P1;HPM_P2
2021/01/05 00:13:04;;;;;;;71.77;28.05;;;;;;;1.56;100.00;100673.59;10527634;83;21043;-89
2021/01/05 00:28:09;;;;;;;86.78;35.58;;;;;;;1.62;100.00;100666.87;10277835;85;352077;-88
2021/01/05 00:43:13;;;;;;;78.65;30.72;;;;;;;1.69;100.00;100664.84;10159382;86;21200;-84
2021/01/05 00:58:17;;;;;;;77.27;29.27;;;;;;;1.49;100.00;100643.30;10068258;87;21103;-85
2021/01/05 01:13:22;;;;;;;60.90;27.58;;;;;;;1.49;100.00;100643.30;10246832;85;21028;-84
2021/01/05 01:28:27;;;;;;;60.15;23.35;;;;;;;1.56;100.00;100649.03;9568033;90;21557;-85
2021/01/05 01:43:31;;;;;;;54.58;21.77;;;;;;;1.49;100.00;100645.88;9145654;93;21081;-85
2021/01/05 01:58:59;;;;;;;106.30;34.48;;;;;;;1.60;100.00;100643.67;9366600;91;21232;-84
2021/01/05 02:14:45;;;;;;;56.00;20.12;;;;;;;1.63;100.00;100628.47;9484312;89;21103;-85
2021/01/05 02:29:54;;;;;;;49.83;21.17;;;;;;;1.59;100.00;100616.13;9489742;92;21076;-87
2021/01/05 02:45:06;;;;;;;53.75;20.37;;;;;;;1.44;100.00;100598.70;9499960;92;21061;-85
2021/01/05 03:01:06;;;;;;;52.48;20.17;;;;;;;1.44;100.00;100598.70;9610205;90;21251;-88
2021/01/05 03:16:16;;;;;;;39.70;18.00;;;;;;;1.31;100.00;100595.38;9607901;91;21070;-88
2021/01/05 03:31:31;;;;;;;41.30;16.80;;;;;;;1.20;100.00;100585.13;9691763;90;21173;-88
2021/01/05 03:46:36;;;;;;;44.08;17.98;;;;;;;1.05;100.00;100574.56;9678709;90;21763;-89
2021/01/05 04:01:39;;;;;;;48.68;18.75;;;;;;;1.02;100.00;100573.84;9857511;84;21044;-87
2021/01/05 04:16:47;;;;;;;39.70;16.10;;;;;;;1.06;100.00;100560.74;10419451;84;21031;-87
2021/01/05 04:31:51;;;;;;;54.60;20.00;;;;;;;1.09;100.00;100563.18;10403977;84;21183;-89
2021/01/05 04:47:03;;;;;;;39.48;17.23;;;;;;;0.99;100.00;100575.67;10363040;84;21224;-92
2021/01/05 05:02:17;;;;;;;34.40;15.50;;;;;;;1.13;100.00;100562.13;10188469;86;174850;-92
2021/01/05 05:18:25;;;;;;;52.50;21.40;;;;;;;0.97;100.00;100562.44;9666014;85;21460;-93
2021/01/05 05:33:34;;;;;;;40.45;17.48;;;;;;;0.97;100.00;100562.44;9272558;95;21068;-93
2021/01/05 05:48:49;;;;;;;121.65;60.80;;;;;;;1.09;100.00;100555.42;9277778;94;21131;-94
2021/01/05 06:03:53;;;;;;;61.77;24.70;;;;;;;1.17;100.00;100543.46;9563609;90;21093;-92
2021/01/05 06:18:57;;;;;;;50.85;23.10;;;;;;;1.19;100.00;100526.59;9517540;92;21124;-92
2021/01/05 06:34:01;;;;;;;46.18;22.42;;;;;;;1.19;100.00;100509.79;10039815;87;5379301;-91
2021/01/05 06:49:05;;;;;;;69.07;26.82;;;;;;;1.10;100.00;100499.44;10211855;84;21123;-92
2021/01/05 07:04:10;;;;;;;51.53;21.50;;;;;;;1.28;100.00;100491.27;10018522;84;1235318;-91
2021/01/05 07:19:14;;;;;;;57.58;26.07;;;;;;;1.18;100.00;100496.51;10014020;88;21062;-89
2021/01/05 07:34:19;;;;;;;88.65;55.33;;;;;;;1.35;100.00;100478.47;10006814;88;21068;-90
2021/01/05 07:49:24;;;;;;;233.57;85.20;;;;;;;1.37;100.00;100454.66;9992893;86;21475;-91
2021/01/05 08:04:29;;;;;;;70.72;31.33;;;;;;;1.44;100.00;100459.08;9993834;88;21210;-91
2021/01/05 08:19:36;;;;;;;181.60;77.58;;;;;;;1.45;100.00;100446.11;9931358;88;21118;-90
2021/01/05 08:34:40;;;;;;;69.00;28.93;;;;;;;1.41;100.00;100439.84;9882724;89;21115;-91
2021/01/05 08:49:44;;;;;;;244.70;101.38;;;;;;;1.49;100.00;100439.88;9987118;87;820249;-90
2021/01/05 09:04:48;;;;;;;116.70;57.03;;;;;;;1.37;100.00;100426.22;9966769;88;21470;-91
2021/01/05 09:19:53;;;;;;;135.75;63.45;;;;;;;1.51;100.00;100404.89;9954142;88;21198;-87
2021/01/05 09:34:57;;;;;;;95.70;51.90;;;;;;;1.51;100.00;100404.89;9600970;88;21138;-90
2021/01/05 09:50:01;;;;;;;194.20;84.97;;;;;;;1.53;100.00;100378.95;9468723;92;21229;-88
2021/01/05 10:05:08;;;;;;;254.40;76.30;;;;;;;1.45;100.00;100359.49;9484481;89;21125;-90
2021/01/05 10:20:15;;;;;;;152.30;64.60;;;;;;;1.33;100.00;100327.32;9468621;92;21079;-89
2021/01/05 10:35:23;;;;;;;130.87;56.75;;;;;;;1.33;100.00;100327.32;9476104;89;21197;-93
2021/01/05 10:50:28;;;;;;;108.87;41.50;;;;;;;1.18;100.00;100306.09;9787283;88;21167;-87
2021/01/05 11:05:32;;;;;;;87.60;35.38;;;;;;;1.20;100.00;100287.92;9851334;89;21160;-87
2021/01/05 11:20:36;;;;;;;71.10;28.45;;;;;;;1.11;100.00;100260.77;9867065;89;21747;-87
2021/01/05 11:35:44;;;;;;;73.10;31.42;;;;;;;1.09;100.00;100255.67;9870070;89;21096;-89
2021/01/05 11:50:48;;;;;;;68.10;28.05;;;;;;;1.03;100.00;100212.08;9880377;88;21101;-89
2021/01/05 12:05:54;;;;;;;41.37;15.87;;;;;;;1.10;100.00;100183.71;9956750;89;21617;-91
2021/01/05 12:20:58;;;;;;;51.02;22.10;;;;;;;1.04;100.00;100161.23;9957446;88;21160;-88
2021/01/05 12:36:02;;;;;;;82.17;33.58;;;;;;;1.09;100.00;100136.81;10043114;88;21266;-87
2021/01/05 12:51:06;;;;;;;86.37;34.43;;;;;;;1.08;100.00;100128.71;10103304;87;21088;-90
2021/01/05 13:06:12;;;;;;;93.10;33.83;;;;;;;1.08;100.00;100102.88;10063174;85;413652;-88
2021/01/05 13:21:29;;;;;;;312.48;139.65;;;;;;;1.04;100.00;100100.05;9712119;88;413265;-88
2021/01/05 13:36:38;;;;;;;137.13;53.77;;;;;;;1.18;100.00;100094.17;10083470;86;21402;-88
2021/01/05 13:51:45;;;;;;;70.03;29.92;;;;;;;1.12;100.00;100084.15;10217541;85;21084;-90
2021/01/05 14:06:56;;;;;;;89.67;41.63;;;;;;;1.24;100.00;100082.67;10234287;85;21263;-89
2021/01/05 14:22:02;;;;;;;216.85;81.78;;;;;;;1.05;100.00;100082.34;10248966;85;21238;-90
2021/01/05 14:37:17;;;;;;;289.10;113.40;;;;;;;0.98;100.00;100060.34;10243161;85;21120;-89
2021/01/05 14:52:24;;;;;;;76.12;28.98;;;;;;;0.90;100.00;100059.44;10254080;85;309566;-93
2021/01/05 15:07:33;;;;;;;236.87;88.62;;;;;;;0.97;100.00;100053.49;10097086;85;21579;-89
2021/01/05 15:22:40;;;;;;;345.73;149.27;;;;;;;0.94;100.00;100044.63;9888879;88;21071;-92
2021/01/05 15:37:46;;;;;;;218.60;98.43;;;;;;;1.01;100.00;100038.20;9836122;88;21137;-90
2021/01/05 15:52:50;;;;;;;403.87;152.17;;;;;;;0.99;100.00;100034.89;9857428;89;21207;-91
2021/01/05 16:08:00;;;;;;;326.60;130.20;;;;;;;0.99;100.00;100026.67;9919459;88;332004;-90
2021/01/05 16:23:06;;;;;;;149.65;56.15;;;;;;;0.99;100.00;100019.39;9251301;93;21154;-92
2021/01/05 16:38:11;;;;;;;114.72;44.42;;;;;;;0.89;100.00;100004.81;10156976;84;21135;-93
2021/01/05 16:53:17;;;;;;;116.17;49.40;;;;;;;1.23;100.00;100007.34;10385248;84;21564;-91
2021/01/05 17:08:21;;;;;;;112.27;46.87;;;;;;;1.34;100.00;100006.32;10386112;84;21167;-91
2021/01/05 17:23:25;;;;;;;294.40;112.72;;;;;;;1.42;100.00;100011.08;10386757;85;21099;-91
2021/01/05 17:38:29;;;;;;;575.87;220.55;;;;;;;1.42;100.00;100011.08;10116829;86;21168;-91
2021/01/05 17:53:33;;;;;;;141.47;51.18;;;;;;;1.48;100.00;100009.47;10198613;86;290846;-91
2021/01/05 18:08:37;;;;;;;169.30;55.43;;;;;;;1.48;100.00;100007.70;10223993;86;21074;-90
2021/01/05 18:23:42;;;;;;;52.45;19.25;;;;;;;1.45;100.00;99996.25;10210245;86;310573;-91
2021/01/05 18:38:47;;;;;;;88.78;34.18;;;;;;;1.55;100.00;99998.33;10011551;86;21126;-92
2021/01/05 18:53:51;;;;;;;174.10;63.68;;;;;;;1.62;100.00;99997.05;9987864;86;381012;-92
2021/01/05 19:08:57;;;;;;;140.20;58.92;;;;;;;1.71;100.00;100006.89;10225421;85;84246;-85
2021/01/05 19:24:05;;;;;;;149.13;58.17;;;;;;;1.70;100.00;99996.16;10042959;87;21077;-88
2021/01/05 19:39:09;;;;;;;377.03;127.17;;;;;;;1.72;100.00;100012.44;10290682;84;347887;-83
2021/01/05 19:54:13;;;;;;;96.15;34.35;;;;;;;1.81;100.00;100009.81;10424293;84;21283;-85
2021/01/05 20:09:18;;;;;;;39.15;17.42;;;;;;;1.74;100.00;100021.41;10342618;84;21083;-82
2021/01/05 20:24:22;;;;;;;31.70;13.58;;;;;;;1.61;100.00;100001.41;10329501;85;21064;-80
2021/01/05 20:39:26;;;;;;;34.85;14.93;;;;;;;1.65;100.00;100007.25;10315674;85;21010;-86
2021/01/05 20:54:31;;;;;;;15.75;8.35;;;;;;;1.72;100.00;100020.20;10333245;85;21103;-85
2021/01/05 21:09:37;;;;;;;19.50;11.83;;;;;;;1.82;100.00;100026.97;10357364;84;21102;-82
2021/01/05 21:24:42;;;;;;;29.40;14.97;;;;;;;1.81;100.00;100029.21;10335231;85;165807;-84
2021/01/05 21:39:46;;;;;;;17.87;9.55;;;;;;;1.88;100.00;100043.93;10248912;84;21412;-84
2021/01/05 21:54:51;;;;;;;55.08;22.35;;;;;;;1.72;100.00;100018.91;10304806;83;174297;-84
2021/01/05 22:09:58;;;;;;;129.15;60.67;;;;;;;1.80;100.00;100021.89;10326893;83;101644;-83
2021/01/05 22:25:05;;;;;;;24.00;11.40;;;;;;;1.82;100.00;100020.06;10332906;84;21264;-81
2021/01/05 22:40:15;;;;;;;14.70;7.65;;;;;;;1.82;100.00;100035.59;10225992;83;79483;-81
2021/01/05 22:55:21;;;;;;;15.55;7.65;;;;;;;1.72;100.00;100018.91;10284680;84;21489;-82
2021/01/05 23:10:30;;;;;;;83.52;28.85;;;;;;;1.78;100.00;100003.50;10290249;84;228949;-82
2021/01/05 23:25:34;;;;;;;19.62;7.75;;;;;;;1.83;100.00;100024.33;10105863;87;21048;-82
2021/01/05 23:40:46;;;;;;;18.23;9.08;;;;;;;1.80;100.00;100023.19;10106767;87;21048;-80
2021/01/05 23:55:51;;;;;;;28.35;12.10;;;;;;;1.74;100.00;100008.47;10151340;84;21120;-83
